Time;durP1;ratioP1;P1;durP2;ratioP2;P2;SDS_P1;SDS_P2;PMS_P1;PMS_P2;Temp;Humidity;BMP_temperature;BMP_pressure;BME280_temperature;BME280_humidity;BME280_pressure;Samples;Min_cycle;Max_cycle;Signal;HPM_P1;HPM_P2
2022/04/26 03:37:17;;;;;;;10.35;5.95;;;;;;;9.69;60.94;99728.75;5093110;28;20048;-60
2022/04/26 03:39:44;;;;;;;8.73;5.88;;;;;;;9.65;60.87;99728.06;5093071;28;20051;-61
2022/04/26 03:42:11;;;;;;;9.13;5.60;;;;;;;9.64;61.12;99734.25;5093139;28;20101;-59
2022/04/26 03:44:38;;;;;;;8.32;5.68;;;;;;;9.63;60.99;99733.41;5092186;28;20059;-59
2022/04/26 03:47:05;;;;;;;10.82;6.15;;;;;;;9.62;61.29;99741.38;5091992;28;20052;-62
2022/04/26 03:49:32;;;;;;;9.57;6.30;;;;;;;9.61;61.47;99729.16;5093221;28;20056;-59
2022/04/26 03:52:00;;;;;;;11.32;6.45;;;;;;;9.59;61.40;99731.88;5092684;28;20435;-60
2022/04/26 03:54:26;;;;;;;9.20;6.30;;;;;;;9.59;61.30;99734.50;5092957;28;20056;-59
2022/04/26 03:56:53;;;;;;;9.80;5.80;;;;;;;9.58;61.48;99737.22;5092486;28;20466;-61
2022/04/26 03:59:20;;;;;;;8.77;6.60;;;;;;;9.56;61.72;99736.44;5092828;28;20044;-60
2022/04/26 04:01:47;;;;;;;11.70;5.72;;;;;;;9.54;61.81;99740.94;5091445;28;20045;-59
2022/04/26 04:04:14;;;;;;;8.93;6.05;;;;;;;9.54;61.71;99746.19;5092646;28;20077;-60
2022/04/26 04:06:41;;;;;;;11.93;6.30;;;;;;;9.50;61.81;99743.72;5091907;28;20097;-59
2022/04/26 04:09:08;;;;;;;11.13;5.80;;;;;;;9.49;61.95;99744.66;5092059;28;20080;-62
2022/04/26 04:11:34;;;;;;;11.25;6.07;;;;;;;9.48;61.98;99748.22;5091021;28;20056;-60
2022/04/26 04:14:01;;;;;;;10.18;6.57;;;;;;;9.47;62.04;99750.91;5090801;28;20122;-58
2022/04/26 04:16:27;;;;;;;10.18;5.88;;;;;;;9.45;62.08;99747.50;5091122;28;20055;-60
2022/04/26 04:21:39;;;;;;;12.35;6.30;;;;;;;9.44;62.16;99758.94;5092292;28;20504;-61
2022/04/26 04:24:06;;;;;;;8.40;5.95;;;;;;;9.43;62.14;99749.38;5092487;28;20054;-60
2022/04/26 04:26:33;;;;;;;13.82;6.53;;;;;;;9.41;62.30;99756.50;5092428;28;20044;-59
2022/04/26 04:28:59;;;;;;;8.52;6.05;;;;;;;9.39;62.26;99754.78;5091234;28;20334;-60
2022/04/26 04:31:26;;;;;;;10.02;6.07;;;;;;;9.38;62.44;99758.34;5092008;28;20060;-60
2022/04/26 04:33:52;;;;;;;12.52;6.28;;;;;;;9.39;62.57;99759.22;5092224;28;20079;-61
2022/04/26 04:36:19;;;;;;;9.60;6.43;;;;;;;9.38;62.53;99768.84;5091768;28;20050;-60
2022/04/26 04:38:46;;;;;;;12.63;6.70;;;;;;;9.37;62.72;99756.66;5091912;28;20069;-61
2022/04/26 04:41:12;;;;;;;10.02;6.22;;;;;;;9.39;62.90;99764.47;5091890;28;20052;-60
2022/04/26 04:43:39;;;;;;;8.95;6.80;;;;;;;9.39;62.81;99767.91;5091691;28;20089;-60
2022/04/26 04:46:05;;;;;;;8.60;6.13;;;;;;;9.40;62.90;99755.66;5091817;28;20098;-61
2022/04/26 04:48:32;;;;;;;7.20;6.07;;;;;;;9.43;63.18;99768.63;5091793;28;20059;-60
2022/04/26 04:50:58;;;;;;;16.20;7.07;;;;;;;9.45;63.15;99766.75;5091355;28;20055;-60
2022/04/26 04:53:25;;;;;;;8.13;6.10;;;;;;;9.48;63.12;99773.63;5091428;28;20044;-60
2022/04/26 04:55:51;;;;;;;12.07;5.93;;;;;;;9.50;63.24;99772.63;5091469;28;20048;-59
2022/04/26 04:58:18;;;;;;;10.45;6.47;;;;;;;9.52;63.56;99778.66;5091537;28;20051;-58
2022/04/26 05:00:45;;;;;;;14.95;7.13;;;;;;;9.55;63.28;99774.16;5091326;28;20044;-59
2022/04/26 05:03:11;;;;;;;12.85;6.60;;;;;;;9.55;63.25;99780.28;5091765;28;20142;-60
2022/04/26 05:05:38;;;;;;;12.40;6.50;;;;;;;9.57;63.31;99783.66;5091338;28;20044;-59
2022/04/26 05:08:08;;;;;;;12.15;6.65;;;;;;;9.58;63.50;99785.38;5090842;28;20086;-59
2022/04/26 05:10:36;;;;;;;11.48;6.60;;;;;;;9.61;63.59;99789.63;5089831;28;20052;-59
2022/04/26 05:13:04;;;;;;;9.23;6.28;;;;;;;9.63;63.51;99790.38;5090147;28;20443;-60
2022/04/26 05:15:30;;;;;;;11.60;6.45;;;;;;;9.65;63.43;99792.00;5091073;28;20056;-59
2022/04/26 05:17:57;;;;;;;12.23;7.25;;;;;;;9.67;63.57;99791.03;5091407;28;20083;-60
2022/04/26 05:20:23;;;;;;;10.73;6.97;;;;;;;9.69;63.67;99797.94;5091165;28;20052;-60
2022/04/26 05:24:53;;;;;;;10.10;6.43;;;;;;;9.72;63.54;99799.56;5091522;28;20495;-59
2022/04/26 05:25:48;;;;;;;11.70;6.97;;;;;;;9.76;63.63;99799.31;5091124;28;20416;-59
2022/04/26 05:28:15;;;;;;;8.57;6.55;;;;;;;9.81;63.79;99800.84;5091112;28;20560;-60
2022/04/26 05:30:51;;;;;;;13.18;7.72;;;;;;;9.82;63.99;99802.53;5091189;28;20051;-60
2022/04/26 05:33:17;;;;;;;12.75;6.53;;;;;;;9.85;63.69;99797.13;5091150;28;20116;-60
2022/04/26 05:35:44;;;;;;;8.65;6.38;;;;;;;9.87;63.62;99801.34;5091032;28;20093;-60
2022/04/26 05:38:10;;;;;;;9.35;6.53;;;;;;;9.90;63.61;99805.59;5091169;28;20051;-60
2022/04/26 05:40:37;;;;;;;9.70;7.05;;;;;;;9.90;63.83;99801.22;5090752;28;20488;-59
2022/04/26 05:43:04;;;;;;;11.23;6.70;;;;;;;9.93;63.79;99810.72;5090878;28;20044;-61
2022/04/26 05:45:30;;;;;;;10.93;6.57;;;;;;;9.94;63.79;99804.50;5091012;28;20124;-60
2022/04/26 05:47:57;;;;;;;11.52;6.63;;;;;;;9.96;63.78;99805.28;5090847;28;20047;-60
2022/04/26 05:50:23;;;;;;;8.00;6.10;;;;;;;9.99;63.80;99807.72;5090639;28;20093;-59
2022/04/26 05:52:50;;;;;;;10.05;6.68;;;;;;;10.00;63.72;99804.19;5090834;28;20110;-62
2022/04/26 05:55:16;;;;;;;9.25;6.30;;;;;;;10.03;63.85;99803.19;5091200;28;20048;-59
2022/04/26 05:57:44;;;;;;;9.07;6.82;;;;;;;10.06;63.93;99810.06;5090699;28;20105;-59
2022/04/26 06:00:13;;;;;;;10.57;6.82;;;;;;;10.07;63.89;99806.47;5090428;28;20541;-59
2022/04/26 06:02:41;;;;;;;11.95;7.32;;;;;;;10.10;64.04;99814.22;5090545;28;20117;-59
2022/04/26 06:05:08;;;;;;;11.82;6.32;;;;;;;10.11;64.01;99808.88;5090634;28;20135;-60
2022/04/26 06:07:35;;;;;;;13.77;7.03;;;;;;;10.14;64.36;99806.06;5090622;28;20495;-60
2022/04/26 06:10:03;;;;;;;12.07;7.53;;;;;;;10.17;64.21;99813.78;5090526;28;20056;-60
2022/04/26 06:12:31;;;;;;;11.07;6.43;;;;;;;10.21;64.25;99813.63;5089487;28;20087;-59
2022/04/26 06:14:59;;;;;;;11.77;7.32;;;;;;;10.25;64.47;99818.63;5090625;28;20051;-59
2022/04/26 06:17:26;;;;;;;9.63;6.25;;;;;;;10.30;64.42;99821.88;5090723;28;20052;-60
2022/04/26 06:19:53;;;;;;;13.68;7.20;;;;;;;10.36;64.60;99819.84;5090506;28;20048;-59
2022/04/26 06:22:19;;;;;;;10.60;6.78;;;;;;;10.42;64.58;99830.00;5094628;28;20051;-60
2022/04/26 06:24:46;;;;;;;10.48;6.43;;;;;;;10.46;64.57;99828.94;5094490;28;20559;-60
2022/04/26 06:27:13;;;;;;;9.18;5.70;;;;;;;10.52;64.48;99827.75;5094932;28;20071;-61
2022/04/26 06:29:39;;;;;;;13.38;6.35;;;;;;;10.57;64.40;99836.25;5094566;28;20101;-60
2022/04/26 06:32:06;;;;;;;11.10;7.03;;;;;;;10.62;64.42;99834.19;5094305;28;20044;-60
2022/04/26 06:34:32;;;;;;;9.60;6.90;;;;;;;10.66;64.28;99845.41;5094465;28;20386;-60
2022/04/26 06:36:59;;;;;;;12.57;6.68;;;;;;;10.71;64.44;99842.50;5094286;28;20056;-63
2022/04/26 06:39:26;;;;;;;11.90;6.65;;;;;;;10.74;64.40;99843.22;5094199;28;20102;-60
2022/04/26 06:41:52;;;;;;;9.32;6.53;;;;;;;10.79;64.27;99845.56;5094191;28;20052;-62
2022/04/26 06:44:19;;;;;;;10.13;6.55;;;;;;;10.84;64.37;99840.03;5094320;28;20044;-62
2022/04/26 06:46:45;;;;;;;10.25;6.43;;;;;;;10.88;64.29;99844.19;5094244;28;20109;-60
2022/04/26 06:49:12;;;;;;;11.93;7.10;;;;;;;10.92;64.45;99851.00;5093972;28;20067;-60
2022/04/26 06:51:43;;;;;;;11.70;7.28;;;;;;;10.95;64.16;99849.03;5092736;28;20052;-60
2022/04/26 06:54:11;;;;;;;16.73;7.60;;;;;;;10.99;63.96;99852.31;5094348;28;20051;-60
2022/04/26 06:56:40;;;;;;;9.95;6.03;;;;;;;11.02;64.24;99846.88;5094222;28;20071;-62
2022/04/26 06:59:07;;;;;;;11.27;6.82;;;;;;;11.07;64.36;99851.91;5094071;28;20048;-62
2022/04/26 07:01:33;;;;;;;11.20;6.75;;;;;;;11.13;64.15;99855.94;5093692;28;20382;-60
2022/04/26 07:04:06;;;;;;;9.73;6.07;;;;;;;11.18;63.96;99856.56;5093818;28;20385;-62
2022/04/26 07:06:34;;;;;;;10.57;6.55;;;;;;;11.23;63.81;99854.50;5094093;28;20051;-62
2022/04/26 07:09:03;;;;;;;9.63;6.60;;;;;;;11.25;63.72;99860.50;5092601;28;20098;-60
2022/04/26 07:11:30;;;;;;;14.38;6.25;;;;;;;11.29;63.93;99855.94;5093726;28;20152;-60
2022/04/26 07:13:57;;;;;;;10.85;6.45;;;;;;;11.32;63.77;99853.09;5093752;28;20052;-59
2022/04/26 07:16:24;;;;;;;16.35;7.32;;;;;;;11.36;63.77;99859.03;5093669;28;20109;-63
2022/04/26 07:18:51;;;;;;;8.70;6.82;;;;;;;11.37;63.60;99845.78;5093724;28;20443;-60
2022/04/26 07:21:18;;;;;;;9.80;6.72;;;;;;;11.40;63.52;99850.84;5093660;28;20052;-61
2022/04/26 07:23:45;;;;;;;11.23;7.35;;;;;;;11.43;63.35;99852.47;5092390;28;20059;-61
2022/04/26 07:26:12;;;;;;;12.07;7.22;;;;;;;11.44;63.48;99849.72;5093639;28;20485;-62
2022/04/26 07:28:39;;;;;;;12.38;7.43;;;;;;;11.46;63.51;99845.22;5093659;28;20043;-59
2022/04/26 07:31:06;;;;;;;15.13;6.38;;;;;;;11.51;63.63;99863.41;5092591;28;20048;-60
2022/04/26 07:36:19;;;;;;;7.28;6.45;;;;;;;11.60;63.70;99867.28;5093631;28;20048;-61
2022/04/26 07:38:46;;;;;;;10.07;7.00;;;;;;;11.65;63.72;99861.72;5093294;28;20063;-60
2022/04/26 07:41:12;;;;;;;9.68;6.95;;;;;;;11.70;63.61;99864.97;5092927;28;20048;-60
2022/04/26 07:43:39;;;;;;;12.73;7.15;;;;;;;11.76;63.63;99869.84;5093139;28;20070;-60
2022/04/26 07:46:06;;;;;;;9.98;7.38;;;;;;;11.82;63.61;99863.38;5092826;28;20048;-60
2022/04/26 07:48:37;;;;;;;12.38;6.97;;;;;;;11.87;63.65;99877.13;5093206;28;20066;-61
2022/04/26 07:51:04;;;;;;;9.93;7.40;;;;;;;11.95;63.56;99881.91;5091597;28;20554;-60
2022/04/26 07:53:30;;;;;;;14.45;8.05;;;;;;;12.02;63.68;99877.09;5092845;28;20047;-62
2022/04/26 07:55:57;;;;;;;11.85;7.55;;;;;;;12.08;63.79;99876.78;5092959;28;20097;-61
2022/04/26 07:58:23;;;;;;;12.60;8.05;;;;;;;12.16;63.73;99878.94;5092997;28;20048;-59
2022/04/26 08:00:50;;;;;;;10.95;7.68;;;;;;;12.23;63.60;99880.25;5092526;28;20472;-59
2022/04/26 08:03:20;;;;;;;13.20;7.45;;;;;;;12.32;63.64;99878.84;5092961;28;20791;-59
2022/04/26 08:05:47;;;;;;;11.90;7.85;;;;;;;12.42;63.48;99884.38;5091526;28;20048;-62
2022/04/26 08:08:13;;;;;;;9.55;7.45;;;;;;;12.50;63.16;99882.97;5092815;28;20104;-60
2022/04/26 08:10:40;;;;;;;11.45;7.13;;;;;;;12.57;63.27;99887.84;5092587;28;20115;-60
2022/04/26 08:13:07;;;;;;;10.85;7.70;;;;;;;12.63;62.94;99898.88;5092415;28;20823;-59
2022/04/26 08:15:33;;;;;;;11.63;7.65;;;;;;;12.71;63.00;99892.28;5092654;28;20052;-61
2022/04/26 08:18:00;;;;;;;13.63;7.40;;;;;;;12.79;63.18;99903.19;5092765;28;20106;-60
2022/04/26 08:20:26;;;;;;;9.73;7.43;;;;;;;12.87;63.04;99908.81;5092477;28;20439;-60
2022/04/26 08:22:53;;;;;;;11.95;8.10;;;;;;;12.96;63.18;99903.88;5092261;28;20052;-61
2022/04/26 08:28:05;;;;;;;11.48;7.75;;;;;;;13.16;63.00;99911.34;5092409;28;20044;-60
2022/04/26 08:30:32;;;;;;;10.63;8.23;;;;;;;13.28;62.93;99912.34;5091871;28;20450;-59
2022/04/26 08:32:58;;;;;;;12.65;8.52;;;;;;;13.38;62.72;99912.59;5092143;28;20048;-59
2022/04/26 08:35:27;;;;;;;9.65;7.32;;;;;;;13.47;63.12;99910.28;5092275;28;20113;-60
2022/04/26 08:38:13;;;;;;;13.65;7.88;;;;;;;13.60;62.71;99918.28;5091063;28;20130;-60
2022/04/26 08:40:43;;;;;;;13.93;9.02;;;;;;;13.68;62.93;99911.50;5091820;28;20105;-60
2022/04/26 08:43:10;;;;;;;13.13;9.07;;;;;;;13.81;62.67;99921.25;5089816;28;20056;-62
2022/04/26 08:45:38;;;;;;;11.02;8.38;;;;;;;13.89;62.16;99924.25;5092185;28;20117;-60
2022/04/26 08:51:04;;;;;;;14.50;8.80;;;;;;;14.10;62.05;99920.22;5091742;28;20066;-61
2022/04/26 08:53:33;;;;;;;10.93;7.13;;;;;;;14.18;61.56;99920.53;5090664;28;20048;-61
2022/04/26 08:56:04;;;;;;;13.40;8.32;;;;;;;14.27;61.44;99926.97;5091867;28;20447;-63
2022/04/26 08:58:32;;;;;;;10.65;8.02;;;;;;;14.37;61.21;99917.44;5091725;28;20087;-60
2022/04/26 09:01:19;;;;;;;9.93;7.93;;;;;;;14.42;60.34;99928.56;5090017;28;20044;-62
2022/04/26 09:03:54;;;;;;;11.02;8.40;;;;;;;14.55;60.12;99931.16;5091832;28;20055;-60
2022/04/26 09:06:33;;;;;;;15.13;8.98;;;;;;;14.64;59.98;99937.63;5144891;27;20572;-59
2022/04/26 09:09:29;;;;;;;14.27;8.98;;;;;;;14.75;60.42;99928.91;5128837;27;20096;-59
2022/04/26 09:11:59;;;;;;;14.00;9.27;;;;;;;14.89;60.61;99933.25;5119851;28;20087;-61
2022/04/26 09:14:50;;;;;;;14.05;9.85;;;;;;;15.01;60.17;99938.59;5128541;28;20452;-61
2022/04/26 09:17:16;;;;;;;14.02;9.65;;;;;;;15.19;60.45;99936.41;5128574;27;20047;-60
2022/04/26 09:19:47;;;;;;;17.05;10.60;;;;;;;15.31;60.31;99945.25;5128038;28;20073;-60
2022/04/26 09:22:23;;;;;;;14.32;10.43;;;;;;;15.44;59.89;99948.69;5128697;27;20059;-61
2022/04/26 09:25:04;;;;;;;15.80;10.20;;;;;;;15.52;58.59;99947.28;5128503;28;20453;-60
2022/04/26 09:27:38;;;;;;;15.00;10.65;;;;;;;15.65;58.28;99942.75;5126957;28;20044;-60
2022/04/26 09:30:13;;;;;;;14.85;10.80;;;;;;;15.70;57.80;99951.19;5128159;27;20039;-61
2022/04/26 09:32:44;;;;;;;12.52;9.88;;;;;;;15.77;57.57;99944.47;5128177;28;20483;-60
2022/04/26 09:35:18;;;;;;;13.45;9.85;;;;;;;15.85;58.43;99945.69;5127080;28;20054;-59
2022/04/26 09:37:44;;;;;;;13.88;10.88;;;;;;;15.97;59.13;99947.44;5128376;28;20051;-60
2022/04/26 09:40:11;;;;;;;17.58;10.30;;;;;;;16.06;58.21;99955.66;5127779;27;20569;-62
2022/04/26 09:42:38;;;;;;;14.88;10.65;;;;;;;16.17;57.81;99954.81;5127912;27;20128;-60
2022/04/26 09:45:07;;;;;;;16.10;12.10;;;;;;;16.23;57.54;99957.84;5126593;28;20051;-60
2022/04/26 09:47:39;;;;;;;17.83;11.40;;;;;;;16.30;57.25;99957.38;5126931;28;20062;-60
2022/04/26 09:50:11;;;;;;;15.35;10.80;;;;;;;16.38;57.68;99962.94;5127866;27;20104;-60
2022/04/26 09:52:41;;;;;;;16.35;11.60;;;;;;;16.51;57.18;99962.81;5126489;28;20097;-61
2022/04/26 09:55:10;;;;;;;15.50;10.90;;;;;;;16.59;56.18;99972.84;5127432;27;20055;-60
2022/04/26 09:57:39;;;;;;;17.23;10.90;;;;;;;16.65;56.08;99975.00;5126404;28;20051;-59
2022/04/26 10:00:11;;;;;;;15.98;10.13;;;;;;;16.70;55.45;99967.50;5127666;27;20108;-61
2022/04/26 10:02:46;;;;;;;12.43;9.93;;;;;;;16.76;55.08;99972.34;5127712;27;20046;-60
2022/04/26 10:05:15;;;;;;;12.85;9.80;;;;;;;16.85;55.52;99976.06;5127833;28;20435;-62
2022/04/26 10:07:46;;;;;;;12.15;8.95;;;;;;;16.90;54.99;99979.19;5127287;27;20047;-63
2022/04/26 10:10:14;;;;;;;16.95;8.90;;;;;;;17.04;56.40;99980.78;5127565;27;20048;-59
2022/04/26 10:13:31;;;;;;;14.95;9.52;;;;;;;17.21;56.40;99981.25;5127418;28;20043;-59
2022/04/26 10:15:28;;;;;;;14.05;9.32;;;;;;;17.43;55.60;99982.13;5127056;27;20043;-59
2022/04/26 10:17:55;;;;;;;11.38;9.23;;;;;;;17.63;54.72;99983.13;5112592;28;20101;-61
2022/04/26 10:20:40;;;;;;;13.55;9.68;;;;;;;17.77;53.04;99986.47;5113688;28;20420;-62
2022/04/26 10:23:07;;;;;;;12.18;10.13;;;;;;;17.94;53.68;99985.88;5113546;28;20039;-61
2022/04/26 10:25:34;;;;;;;12.23;10.30;;;;;;;18.03;53.94;99986.06;5113429;28;20047;-59
2022/04/26 10:28:23;;;;;;;13.65;10.32;;;;;;;18.06;52.24;99991.97;5113453;28;20112;-62
2022/04/26 10:30:52;;;;;;;16.70;10.93;;;;;;;18.17;52.80;99985.75;5112258;28;20481;-61
2022/04/26 10:33:43;;;;;;;14.65;10.73;;;;;;;18.19;52.37;99985.63;5113480;28;20488;-60
2022/04/26 10:36:27;;;;;;;16.40;11.35;;;;;;;18.24;52.23;99986.09;5113348;28;20044;-60
2022/04/26 10:39:06;;;;;;;14.35;10.82;;;;;;;18.30;51.45;99987.38;5113005;28;20112;-65
2022/04/26 10:41:37;;;;;;;16.42;10.80;;;;;;;18.35;51.87;99988.69;5113164;27;20047;-72
2022/04/26 10:44:13;;;;;;;12.77;10.20;;;;;;;18.33;51.26;99987.13;5113169;28;20060;-60
2022/04/26 10:46:40;;;;;;;15.77;10.07;;;;;;;18.36;52.39;99989.53;5113008;28;20101;-59
2022/04/26 10:49:26;;;;;;;14.15;10.25;;;;;;;18.33;51.80;99993.31;5111516;28;20134;-61
2022/04/26 10:51:57;;;;;;;10.20;9.15;;;;;;;18.40;52.01;99990.97;5113288;28;20150;-61
2022/04/26 10:54:45;;;;;;;11.88;9.20;;;;;;;18.40;51.25;99996.28;5111684;28;20419;-60
2022/04/26 10:57:17;;;;;;;11.88;9.35;;;;;;;18.55;53.11;99999.44;5111491;28;20056;-60
2022/04/26 10:59:49;;;;;;;12.87;10.20;;;;;;;18.83;54.58;99993.47;5111334;28;20048;-60
2022/04/26 11:02:18;;;;;;;15.68;11.10;;;;;;;19.23;54.09;100000.66;5111568;28;20055;-60
2022/04/26 11:04:45;;;;;;;15.43;10.65;;;;;;;19.69;53.57;100001.94;5111261;28;20535;-59
2022/04/26 11:07:18;;;;;;;11.73;9.82;;;;;;;20.18;53.74;100000.06;5112787;28;20047;-62
2022/04/26 11:09:49;;;;;;;13.02;9.93;;;;;;;20.75;52.97;100002.84;5112463;28;20043;-61
2022/04/26 11:12:24;;;;;;;12.95;9.63;;;;;;;21.32;50.08;100000.00;5112570;28;20545;-60
2022/04/26 11:14:57;;;;;;;11.85;9.30;;;;;;;21.88;49.41;100007.03;5112692;28;20040;-61
2022/04/26 11:17:25;;;;;;;11.27;8.98;;;;;;;22.41;50.13;100000.84;5111535;28;20043;-61
2022/04/26 11:19:54;;;;;;;10.55;8.75;;;;;;;22.91;48.87;100001.94;5110987;28;20048;-61
2022/04/26 11:22:22;;;;;;;11.40;8.38;;;;;;;23.40;47.96;100000.41;5112357;28;20112;-60
2022/04/26 11:30:31;;;;;;;8.88;7.95;;;;;;;24.59;43.54;100005.34;5112109;28;20117;-61
2022/04/26 11:32:59;;;;;;;8.77;7.55;;;;;;;24.73;43.97;100014.56;5112259;28;20058;-61
2022/04/26 11:35:26;;;;;;;8.57;7.55;;;;;;;24.92;44.09;100012.47;5112553;28;20721;-61
2022/04/26 11:37:55;;;;;;;9.20;7.25;;;;;;;25.19;43.04;100004.91;5112124;28;20070;-61
2022/04/26 11:40:24;;;;;;;8.45;7.50;;;;;;;25.54;42.53;100001.00;5110496;28;20475;-61
2022/04/26 11:42:51;;;;;;;10.68;6.82;;;;;;;25.93;42.80;100000.00;5112007;28;20143;-60
2022/04/26 11:45:18;;;;;;;8.13;6.28;;;;;;;26.28;41.58;100004.94;5110451;28;20484;-61
2022/04/26 11:47:50;;;;;;;8.05;6.63;;;;;;;26.48;39.70;100004.38;5111828;28;20052;-61
2022/04/26 11:50:24;;;;;;;7.15;5.97;;;;;;;26.46;38.38;100006.44;5111604;28;20052;-61
2022/04/26 11:52:53;;;;;;;7.72;6.68;;;;;;;26.27;38.02;100003.25;5111762;28;20093;-61
2022/04/26 11:55:35;;;;;;;8.00;6.28;;;;;;;26.04;38.15;100009.53;5111603;28;20534;-63
2022/04/26 11:58:22;;;;;;;7.07;6.05;;;;;;;25.94;40.27;100017.88;5111464;28;20051;-61
2022/04/26 12:01:12;;;;;;;6.97;6.07;;;;;;;26.04;38.28;100008.69;5111520;28;20055;-61
2022/04/26 12:03:52;;;;;;;8.30;5.93;;;;;;;26.08;37.35;100013.53;5111583;28;20044;-61
2022/04/26 12:06:28;;;;;;;7.03;5.60;;;;;;;26.17;38.10;100006.22;5110066;28;20412;-61
2022/04/26 12:08:57;;;;;;;8.02;5.80;;;;;;;26.21;37.66;100014.75;5111762;28;20052;-61
2022/04/26 12:11:26;;;;;;;8.32;5.90;;;;;;;26.20;37.32;100007.69;5110251;28;20043;-61
2022/04/26 12:14:21;;;;;;;7.13;4.82;;;;;;;26.11;37.65;100006.94;5111472;28;20100;-61
2022/04/26 12:16:59;;;;;;;5.97;4.60;;;;;;;26.14;36.99;100011.97;5109686;28;20492;-61
2022/04/26 12:19:34;;;;;;;9.50;5.72;;;;;;;25.97;36.36;100009.41;5111408;28;20560;-61
2022/04/26 12:22:02;;;;;;;6.32;5.30;;;;;;;25.81;37.28;100007.72;5111156;28;20098;-61
2022/04/26 12:24:31;;;;;;;8.55;5.80;;;;;;;25.66;37.61;100015.75;5111311;28;20458;-61
2022/04/26 12:27:13;;;;;;;8.77;6.57;;;;;;;25.62;37.96;100017.97;5109838;28;20054;-60
2022/04/26 12:29:46;;;;;;;8.27;5.90;;;;;;;25.82;37.95;100009.38;5110024;28;20101;-61
2022/04/26 12:32:13;;;;;;;;;;;;;;;26.01;41.14;100017.97;5111628;27;20057;-61
2022/04/26 12:35:00;;;;;;;6.78;5.43;;;;;;;26.32;38.90;100017.06;5110091;28;19919;-61
2022/04/26 12:37:31;;;;;;;6.88;5.47;;;;;;;26.71;37.97;100006.13;5110776;28;20532;-63
2022/04/26 12:40:05;;;;;;;8.85;5.25;;;;;;;27.12;36.82;100002.91;5110536;28;20412;-61
2022/04/26 12:42:34;;;;;;;5.72;5.03;;;;;;;27.55;37.32;100009.38;5111080;28;20454;-61
2022/04/26 12:45:21;;;;;;;5.78;4.82;;;;;;;27.91;34.73;100015.72;5110804;28;20048;-62
2022/04/26 12:50:50;;;;;;;7.60;5.28;;;;;;;28.08;34.20;100013.59;5110578;28;20101;-62
2022/04/26 12:53:25;;;;;;;7.72;4.50;;;;;;;28.02;33.82;100014.34;5097587;28;20296;-61
2022/04/26 12:55:53;;;;;;;4.90;4.40;;;;;;;28.06;34.96;100011.06;5089271;28;20059;-62
2022/04/26 12:58:35;;;;;;;6.57;4.63;;;;;;;28.13;35.47;100008.41;5090514;28;20503;-62
2022/04/26 13:01:04;;;;;;;9.07;4.55;;;;;;;28.39;35.06;100016.94;5090431;28;20080;-62
2022/04/26 13:03:31;;;;;;;8.38;5.22;;;;;;;28.54;33.73;100009.53;5089272;28;20116;-61
2022/04/26 13:06:12;;;;;;;5.45;4.38;;;;;;;28.46;32.94;100015.94;5098727;28;20460;-62
2022/04/26 13:08:58;;;;;;;10.80;4.78;;;;;;;28.35;33.32;100009.22;5110834;28;20486;-61
2022/04/26 13:11:32;;;;;;;6.03;4.65;;;;;;;28.18;33.21;100000.53;5109750;28;20105;-61
2022/04/26 13:13:58;;;;;;;5.10;3.78;;;;;;;28.02;32.80;100011.66;5109361;28;20058;-62
2022/04/26 13:16:25;;;;;;;8.27;4.72;;;;;;;27.89;33.42;100013.25;5110637;28;20112;-62
2022/04/26 13:18:51;;;;;;;8.45;4.78;;;;;;;27.89;33.80;100005.13;5110512;28;20051;-61
2022/04/26 13:21:18;;;;;;;6.82;4.88;;;;;;;28.01;33.83;100002.72;5110272;28;20048;-61
2022/04/26 13:23:45;;;;;;;6.50;4.55;;;;;;;28.23;33.48;100002.66;5110720;28;20124;-63
2022/04/26 13:26:11;;;;;;;9.07;4.60;;;;;;;28.52;33.57;100005.34;5110487;28;20104;-61
2022/04/26 13:28:38;;;;;;;4.90;4.43;;;;;;;28.82;33.09;100000.47;5110447;28;20108;-62
2022/04/26 13:31:04;;;;;;;6.57;4.60;;;;;;;29.13;32.76;99995.63;5110420;28;20047;-62
2022/04/26 13:33:31;;;;;;;5.32;4.45;;;;;;;29.30;31.40;99996.06;5110498;28;20444;-61
2022/04/26 13:35:57;;;;;;;4.78;4.10;;;;;;;29.23;30.34;99996.03;5109116;28;20051;-62
2022/04/26 13:38:24;;;;;;;7.57;4.18;;;;;;;28.94;30.01;99998.06;5110610;28;20055;-61
2022/04/26 13:40:53;;;;;;;5.47;4.18;;;;;;;28.60;30.31;100002.47;5110267;28;20055;-62
2022/04/26 13:43:23;;;;;;;7.07;4.63;;;;;;;28.38;31.44;100004.44;5110685;28;20267;-61
2022/04/26 13:46:11;;;;;;;8.38;4.53;;;;;;;28.35;32.02;100001.09;5109128;28;20496;-61
2022/04/26 13:48:37;;;;;;;5.25;4.15;;;;;;;28.47;32.33;100009.50;5109876;28;20073;-61
2022/04/26 13:51:04;;;;;;;6.93;4.78;;;;;;;28.65;31.58;100010.84;5102093;28;20051;-61
2022/04/26 13:53:31;;;;;;;6.20;4.28;;;;;;;28.82;30.54;100007.78;5108075;28;20039;-62
2022/04/26 13:55:59;;;;;;;5.65;3.97;;;;;;;28.88;29.95;100009.66;5098811;28;20050;-61
2022/04/26 13:58:27;;;;;;;8.38;4.72;;;;;;;28.81;29.63;100011.53;5093562;28;20135;-63
2022/04/26 14:00:54;;;;;;;5.45;4.38;;;;;;;28.60;29.33;100010.59;5093085;28;20051;-61
2022/04/26 14:03:21;;;;;;;6.65;4.40;;;;;;;28.31;29.41;100012.50;5093638;28;20040;-61
2022/04/26 14:05:47;;;;;;;8.18;4.60;;;;;;;27.95;29.44;100020.56;5093334;28;20047;-62
2022/04/26 14:08:14;;;;;;;6.82;4.32;;;;;;;27.67;30.77;100010.56;5093473;28;20515;-61
2022/04/26 14:10:41;;;;;;;5.35;4.50;;;;;;;27.57;31.04;100010.84;5091870;28;20101;-61
2022/04/26 14:13:09;;;;;;;5.20;4.35;;;;;;;27.61;31.11;100011.34;5091966;28;20048;-62
2022/04/26 14:23:51;;;;;;;5.75;3.70;;;;;;;28.82;31.40;100015.91;5093078;28;20044;-61
2022/04/26 14:26:17;;;;;;;5.47;3.63;;;;;;;29.15;30.58;100011.69;5093042;28;20098;-62
2022/04/26 14:28:44;;;;;;;5.05;3.78;;;;;;;29.45;30.09;100017.56;5091954;28;20059;-62
2022/04/26 14:31:10;;;;;;;4.47;3.92;;;;;;;29.72;29.56;100008.66;5093183;28;20105;-62
2022/04/26 14:33:38;;;;;;;5.75;4.00;;;;;;;29.95;28.86;100012.81;5093372;28;20063;-61
2022/04/26 14:36:05;;;;;;;3.75;3.33;;;;;;;30.06;28.41;100014.06;5092908;28;20050;-62
2022/04/26 14:38:32;;;;;;;7.70;4.63;;;;;;;29.98;27.68;100013.22;5092669;28;20044;-63
2022/04/26 14:40:59;;;;;;;5.53;4.20;;;;;;;29.73;27.16;100015.75;5090871;28;20547;-62
2022/04/26 14:43:26;;;;;;;7.22;4.30;;;;;;;29.29;26.68;100021.50;5092421;28;20080;-62
2022/04/26 14:45:55;;;;;;;5.22;4.05;;;;;;;28.86;27.83;100012.56;5092614;28;20051;-61
2022/04/26 14:48:23;;;;;;;5.82;4.10;;;;;;;28.55;28.81;100019.31;5092787;28;20123;-62
2022/04/26 14:50:54;;;;;;;5.22;3.67;;;;;;;28.41;29.06;100014.88;5092426;28;20591;-62
2022/04/26 14:53:20;;;;;;;5.75;3.90;;;;;;;28.44;29.25;100020.72;5091119;28;20036;-61
2022/04/26 14:56:06;;;;;;;5.38;3.55;;;;;;;28.60;29.32;100019.53;5092591;28;20480;-62
2022/04/26 14:58:53;;;;;;;7.28;3.55;;;;;;;28.86;29.15;100017.19;5092436;28;20044;-62
2022/04/26 15:01:19;;;;;;;4.60;3.47;;;;;;;29.09;28.53;100018.75;5091901;28;20450;-62
2022/04/26 15:03:46;;;;;;;6.72;4.28;;;;;;;29.30;28.26;100016.94;5090751;28;20055;-65
2022/04/26 15:06:13;;;;;;;5.53;3.63;;;;;;;29.48;28.00;100014.44;5091463;28;20059;-62
2022/04/26 15:11:24;;;;;;;6.13;3.45;;;;;;;29.76;28.24;100005.31;5092190;28;20040;-63
2022/04/26 15:16:39;;;;;;;6.28;4.07;;;;;;;30.03;27.81;100008.03;5092401;28;20109;-62
2022/04/26 15:19:07;;;;;;;5.47;3.58;;;;;;;30.15;27.68;100010.09;5090846;28;20480;-62
2022/04/26 15:21:34;;;;;;;5.70;3.80;;;;;;;30.24;27.16;100010.72;5090888;28;20048;-62
2022/04/26 15:24:01;;;;;;;5.75;3.35;;;;;;;30.32;27.07;100013.22;5092098;28;20040;-61
2022/04/26 15:26:28;;;;;;;5.05;3.35;;;;;;;30.37;27.08;100013.41;5091678;28;20093;-62
2022/04/26 15:28:57;;;;;;;4.72;3.55;;;;;;;30.41;26.65;100017.38;5092142;28;20051;-61
2022/04/26 15:31:23;;;;;;;6.82;3.72;;;;;;;30.43;26.82;100009.03;5091864;28;20044;-61
2022/04/26 15:33:52;;;;;;;4.00;3.50;;;;;;;30.45;26.84;100016.97;5091932;28;20040;-62
2022/04/26 15:36:20;;;;;;;7.07;3.85;;;;;;;30.45;25.99;100020.50;5091852;28;20401;-63
2022/04/26 15:38:47;;;;;;;4.72;3.45;;;;;;;30.43;26.62;100020.69;5091896;28;20395;-62
2022/04/26 15:41:14;;;;;;;3.88;3.03;;;;;;;30.45;26.34;100025.91;5090142;28;20074;-62
2022/04/26 15:43:42;;;;;;;5.82;3.80;;;;;;;30.45;26.02;100016.97;5090440;28;20562;-62
2022/04/26 15:46:28;;;;;;;5.10;3.72;;;;;;;30.45;25.76;100023.22;5091910;28;20146;-65
2022/04/26 15:48:59;;;;;;;8.00;3.85;;;;;;;30.39;25.57;100034.94;5091551;28;20105;-64